Brownsville, CA (95919)

12:36 PM PST on December 21, 2014 (GMT -0800)
San Juan Ridge | Change Station
CLOSE
Current Station
Personal Weather Station
Location: Nevada City, CA
Elevation: 2060 ft
Nearby Weather Stations

Elev 2060 ft 39.34 °N, 121.08 °W | Updated 6 minutes ago

Overcast
Overcast
54.7 °F
Feels Like 54.7 °F
N
0.0
Wind Variable Wind from West
Gusts 0.0 mph

Today
High -- | Low -- °F
--% Chance of Precip.
Yesterday
High -- | Low -- °F
Precip. -- in
7:21 AM 4:44 PM
Waning Crescent, 0% visible
Pressure 30.29 in
Visibility 0.2 miles
Clouds Overcast 100 ft
Dew Point 55 °F
Humidity 100%
Rainfall 0.08 in
Snow Depth Not available.
UV 1 out of 12
Pollen 2.90 out of 12
Air Quality Not available.
Flu Activity Not available.
METAR KGOO 212015Z AUTO 15005KT M1/4SM OVC001 10/10 A3029 RMK AO1

More Conditions Fewer Conditions

Pressure 30.29 in
Visibility 0.2 miles
Clouds Overcast 100 ft
Dew Point 55 °F
Humidity 100%
Rainfall 0.08 in
Snow Depth Not available.
UV 1 out of 12
Pollen 2.90 out of 12
Air Quality Not available.
Flu Activity Not available.
METAR KGOO 212015Z AUTO 15005KT M1/4SM OVC001 10/10 A3029 RMK AO1

More Conditions Fewer Conditions

10-Day Weather Forecast

Almanac

Astronomy

Dec. 21, 2014 Rise Set
Actual Time
Civil Twilight
Nautical Twilight
Astronomical Twilight
Moon
Length of Visible Light
Length of Day
Tomorrow will be .
, % of the Moon is Illuminated

Today's Extremes

State Highs State Lows

Community

WunderPhotos

Upload Photos

1,779,471 photos uploaded!

WunderBlogs® & News

Nearby

Air Quality

  Air Quality AQ Index Pollutant
Not available.

Snow Depth

Station Depth Elevation

Earthquake Activity

City Distance Mag. Time & Date
Minimum magnitude displayed is 2.5.

Coastal Water Temperatures

Place Temperature

Nearby Weather Stations